sensor_id;sensor_type;location;lat;lon;timestamp;P1;durP1;ratioP1;P2;durP2;ratioP2
6973;SDS011;3527;52.376;8.990;2023-08-20T00:01:27;14.30;;;9.23;;
6973;SDS011;3527;52.376;8.990;2023-08-20T00:03:54;13.53;;;8.60;;
6973;SDS011;3527;52.376;8.990;2023-08-20T00:06:21;13.73;;;9.20;;
6973;SDS011;3527;52.376;8.990;2023-08-20T00:08:48;12.97;;;8.60;;
6973;SDS011;3527;52.376;8.990;2023-08-20T00:11:15;11.13;;;8.27;;
6973;SDS011;3527;52.376;8.990;2023-08-20T00:13:42;14.87;;;8.53;;
6973;SDS011;3527;52.376;8.990;2023-08-20T00:16:09;12.57;;;8.57;;
6973;SDS011;3527;52.376;8.990;2023-08-20T00:18:36;14.60;;;8.17;;
6973;SDS011;3527;52.376;8.990;2023-08-20T00:21:05;12.60;;;8.10;;
6973;SDS011;3527;52.376;8.990;2023-08-20T00:23:31;10.30;;;7.47;;
6973;SDS011;3527;52.376;8.990;2023-08-20T00:25:58;11.63;;;7.80;;
6973;SDS011;3527;52.376;8.990;2023-08-20T00:28:25;15.07;;;7.70;;
6973;SDS011;3527;52.376;8.990;2023-08-20T00:30:52;11.57;;;7.57;;
6973;SDS011;3527;52.376;8.990;2023-08-20T00:33:19;10.73;;;7.53;;
6973;SDS011;3527;52.376;8.990;2023-08-20T00:35:45;10.53;;;7.03;;
6973;SDS011;3527;52.376;8.990;2023-08-20T00:38:12;12.50;;;7.30;;
6973;SDS011;3527;52.376;8.990;2023-08-20T00:40:39;10.53;;;7.67;;
6973;SDS011;3527;52.376;8.990;2023-08-20T00:43:05;10.13;;;6.67;;
6973;SDS011;3527;52.376;8.990;2023-08-20T00:45:32;10.20;;;6.73;;
6973;SDS011;3527;52.376;8.990;2023-08-20T00:48:00;9.77;;;6.20;;
6973;SDS011;3527;52.376;8.990;2023-08-20T00:50:27;10.87;;;6.83;;
6973;SDS011;3527;52.376;8.990;2023-08-20T00:52:53;9.80;;;6.47;;
6973;SDS011;3527;52.376;8.990;2023-08-20T00:55:20;9.07;;;6.10;;
6973;SDS011;3527;52.376;8.990;2023-08-20T00:57:47;10.13;;;5.97;;
6973;SDS011;3527;52.376;8.990;2023-08-20T01:00:14;9.13;;;5.60;;
6973;SDS011;3527;52.376;8.990;2023-08-20T01:02:42;9.47;;;6.00;;
6973;SDS011;3527;52.376;8.990;2023-08-20T01:05:12;10.80;;;6.47;;
6973;SDS011;3527;52.376;8.990;2023-08-20T01:07:43;7.97;;;6.00;;
6973;SDS011;3527;52.376;8.990;2023-08-20T01:12:47;12.77;;;8.97;;
6973;SDS011;3527;52.376;8.990;2023-08-20T01:15:14;14.23;;;9.87;;
6973;SDS011;3527;52.376;8.990;2023-08-20T01:17:41;12.53;;;8.67;;
6973;SDS011;3527;52.376;8.990;2023-08-20T01:20:09;10.90;;;8.90;;
6973;SDS011;3527;52.376;8.990;2023-08-20T01:30:23;10.87;;;8.50;;
6973;SDS011;3527;52.376;8.990;2023-08-20T01:32:50;11.47;;;8.13;;
6973;SDS011;3527;52.376;8.990;2023-08-20T01:35:18;11.93;;;7.80;;
6973;SDS011;3527;52.376;8.990;2023-08-20T01:37:45;9.33;;;6.93;;
6973;SDS011;3527;52.376;8.990;2023-08-20T01:40:12;11.37;;;7.87;;
6973;SDS011;3527;52.376;8.990;2023-08-20T01:42:39;12.23;;;7.33;;
6973;SDS011;3527;52.376;8.990;2023-08-20T01:45:06;9.37;;;7.47;;
6973;SDS011;3527;52.376;8.990;2023-08-20T01:47:33;10.73;;;7.10;;
6973;SDS011;3527;52.376;8.990;2023-08-20T01:50:01;10.80;;;7.47;;
6973;SDS011;3527;52.376;8.990;2023-08-20T01:52:32;9.70;;;7.07;;
6973;SDS011;3527;52.376;8.990;2023-08-20T01:54:58;11.17;;;7.07;;
6973;SDS011;3527;52.376;8.990;2023-08-20T01:57:25;11.43;;;6.60;;
6973;SDS011;3527;52.376;8.990;2023-08-20T01:59:52;10.03;;;7.13;;
6973;SDS011;3527;52.376;8.990;2023-08-20T02:02:19;11.13;;;7.53;;
6973;SDS011;3527;52.376;8.990;2023-08-20T02:04:45;9.37;;;6.77;;
6973;SDS011;3527;52.376;8.990;2023-08-20T02:07:12;9.07;;;6.97;;
6973;SDS011;3527;52.376;8.990;2023-08-20T02:09:39;10.80;;;7.20;;
6973;SDS011;3527;52.376;8.990;2023-08-20T02:12:06;14.17;;;7.20;;
6973;SDS011;3527;52.376;8.990;2023-08-20T02:14:33;13.40;;;7.27;;
6973;SDS011;3527;52.376;8.990;2023-08-20T02:17:02;12.63;;;7.20;;
6973;SDS011;3527;52.376;8.990;2023-08-20T02:19:29;13.40;;;8.13;;
6973;SDS011;3527;52.376;8.990;2023-08-20T02:21:56;9.57;;;7.33;;
6973;SDS011;3527;52.376;8.990;2023-08-20T02:24:23;9.90;;;7.00;;
6973;SDS011;3527;52.376;8.990;2023-08-20T02:26:50;10.93;;;8.40;;
6973;SDS011;3527;52.376;8.990;2023-08-20T02:29:16;10.97;;;7.57;;
6973;SDS011;3527;52.376;8.990;2023-08-20T02:31:43;10.60;;;8.07;;
6973;SDS011;3527;52.376;8.990;2023-08-20T02:34:10;11.10;;;7.57;;
6973;SDS011;3527;52.376;8.990;2023-08-20T02:36:36;10.20;;;8.30;;
6973;SDS011;3527;52.376;8.990;2023-08-20T02:39:03;13.53;;;8.33;;
6973;SDS011;3527;52.376;8.990;2023-08-20T02:41:34;9.07;;;7.33;;
6973;SDS011;3527;52.376;8.990;2023-08-20T02:44:02;8.80;;;7.23;;
6973;SDS011;3527;52.376;8.990;2023-08-20T02:46:29;10.20;;;7.97;;
6973;SDS011;3527;52.376;8.990;2023-08-20T02:48:59;12.67;;;8.17;;
6973;SDS011;3527;52.376;8.990;2023-08-20T02:51:26;14.47;;;8.13;;
6973;SDS011;3527;52.376;8.990;2023-08-20T02:53:52;12.20;;;7.83;;
6973;SDS011;3527;52.376;8.990;2023-08-20T02:56:19;8.57;;;7.20;;
6973;SDS011;3527;52.376;8.990;2023-08-20T02:58:46;8.97;;;7.83;;
6973;SDS011;3527;52.376;8.990;2023-08-20T03:01:23;10.40;;;7.67;;
6973;SDS011;3527;52.376;8.990;2023-08-20T03:03:50;11.60;;;8.20;;
6973;SDS011;3527;52.376;8.990;2023-08-20T03:06:16;10.57;;;8.03;;
6973;SDS011;3527;52.376;8.990;2023-08-20T03:08:43;10.63;;;7.80;;
6973;SDS011;3527;52.376;8.990;2023-08-20T03:11:10;11.60;;;8.07;;
6973;SDS011;3527;52.376;8.990;2023-08-20T03:13:36;9.97;;;7.43;;
6973;SDS011;3527;52.376;8.990;2023-08-20T03:16:03;13.53;;;8.47;;
6973;SDS011;3527;52.376;8.990;2023-08-20T03:18:30;11.17;;;7.73;;
6973;SDS011;3527;52.376;8.990;2023-08-20T03:20:56;12.60;;;8.30;;
6973;SDS011;3527;52.376;8.990;2023-08-20T03:23:23;10.40;;;8.23;;
6973;SDS011;3527;52.376;8.990;2023-08-20T03:25:50;10.40;;;8.07;;
6973;SDS011;3527;52.376;8.990;2023-08-20T03:28:17;13.13;;;8.63;;
6973;SDS011;3527;52.376;8.990;2023-08-20T03:30:44;11.77;;;8.03;;
6973;SDS011;3527;52.376;8.990;2023-08-20T03:33:11;14.30;;;8.10;;
6973;SDS011;3527;52.376;8.990;2023-08-20T03:35:38;12.93;;;7.77;;
6973;SDS011;3527;52.376;8.990;2023-08-20T03:38:05;11.93;;;7.77;;
6973;SDS011;3527;52.376;8.990;2023-08-20T03:40:31;9.27;;;7.40;;
6973;SDS011;3527;52.376;8.990;2023-08-20T03:42:58;11.97;;;8.00;;
6973;SDS011;3527;52.376;8.990;2023-08-20T03:45:25;10.43;;;7.03;;
6973;SDS011;3527;52.376;8.990;2023-08-20T03:47:52;11.47;;;7.53;;
6973;SDS011;3527;52.376;8.990;2023-08-20T03:50:19;12.53;;;7.37;;
6973;SDS011;3527;52.376;8.990;2023-08-20T03:52:46;11.33;;;7.13;;
6973;SDS011;3527;52.376;8.990;2023-08-20T03:55:13;10.67;;;7.57;;
6973;SDS011;3527;52.376;8.990;2023-08-20T03:57:39;13.03;;;7.07;;
6973;SDS011;3527;52.376;8.990;2023-08-20T04:00:06;10.60;;;7.73;;
6973;SDS011;3527;52.376;8.990;2023-08-20T04:02:35;12.00;;;7.57;;
6973;SDS011;3527;52.376;8.990;2023-08-20T04:05:02;10.77;;;7.53;;
6973;SDS011;3527;52.376;8.990;2023-08-20T04:07:29;14.37;;;8.43;;
6973;SDS011;3527;52.376;8.990;2023-08-20T04:09:56;11.00;;;7.87;;
6973;SDS011;3527;52.376;8.990;2023-08-20T04:12:23;13.53;;;8.53;;
6973;SDS011;3527;52.376;8.990;2023-08-20T04:15:09;11.73;;;7.53;;
6973;SDS011;3527;52.376;8.990;2023-08-20T04:17:56;11.10;;;8.30;;
6973;SDS011;3527;52.376;8.990;2023-08-20T04:20:43;11.97;;;7.60;;
6973;SDS011;3527;52.376;8.990;2023-08-20T04:23:10;14.80;;;8.23;;
6973;SDS011;3527;52.376;8.990;2023-08-20T04:25:57;11.43;;;8.03;;
6973;SDS011;3527;52.376;8.990;2023-08-20T04:28:44;11.60;;;8.43;;
6973;SDS011;3527;52.376;8.990;2023-08-20T04:31:30;15.03;;;8.67;;
6973;SDS011;3527;52.376;8.990;2023-08-20T04:34:17;13.53;;;8.20;;
6973;SDS011;3527;52.376;8.990;2023-08-20T04:37:04;11.93;;;8.47;;
6973;SDS011;3527;52.376;8.990;2023-08-20T04:39:41;12.73;;;8.07;;
6973;SDS011;3527;52.376;8.990;2023-08-20T04:42:08;11.00;;;8.27;;
6973;SDS011;3527;52.376;8.990;2023-08-20T04:44:35;12.47;;;8.47;;
6973;SDS011;3527;52.376;8.990;2023-08-20T04:47:02;15.73;;;9.27;;
6973;SDS011;3527;52.376;8.990;2023-08-20T04:49:28;11.77;;;8.87;;
6973;SDS011;3527;52.376;8.990;2023-08-20T04:51:56;12.90;;;7.93;;
6973;SDS011;3527;52.376;8.990;2023-08-20T04:54:23;12.90;;;8.73;;
6973;SDS011;3527;52.376;8.990;2023-08-20T04:56:49;14.63;;;8.93;;
6973;SDS011;3527;52.376;8.990;2023-08-20T04:59:16;13.23;;;8.77;;
6973;SDS011;3527;52.376;8.990;2023-08-20T05:01:42;15.90;;;9.77;;
6973;SDS011;3527;52.376;8.990;2023-08-20T05:04:09;13.97;;;8.87;;
6973;SDS011;3527;52.376;8.990;2023-08-20T05:06:36;12.77;;;9.07;;
6973;SDS011;3527;52.376;8.990;2023-08-20T05:09:03;13.17;;;9.80;;
6973;SDS011;3527;52.376;8.990;2023-08-20T05:11:30;14.40;;;9.50;;
6973;SDS011;3527;52.376;8.990;2023-08-20T05:14:00;15.37;;;9.60;;
6973;SDS011;3527;52.376;8.990;2023-08-20T05:16:27;17.10;;;10.13;;
6973;SDS011;3527;52.376;8.990;2023-08-20T05:18:53;14.00;;;9.97;;
6973;SDS011;3527;52.376;8.990;2023-08-20T05:21:20;13.40;;;9.40;;
6973;SDS011;3527;52.376;8.990;2023-08-20T05:23:51;14.60;;;9.40;;
6973;SDS011;3527;52.376;8.990;2023-08-20T05:26:18;14.73;;;9.80;;
6973;SDS011;3527;52.376;8.990;2023-08-20T05:28:44;12.47;;;9.80;;
6973;SDS011;3527;52.376;8.990;2023-08-20T05:31:11;11.43;;;8.50;;
6973;SDS011;3527;52.376;8.990;2023-08-20T05:33:38;15.83;;;9.07;;
6973;SDS011;3527;52.376;8.990;2023-08-20T05:36:04;10.03;;;8.00;;
6973;SDS011;3527;52.376;8.990;2023-08-20T05:38:31;11.87;;;8.10;;
6973;SDS011;3527;52.376;8.990;2023-08-20T05:40:57;11.73;;;7.60;;
6973;SDS011;3527;52.376;8.990;2023-08-20T05:43:24;10.83;;;6.93;;
6973;SDS011;3527;52.376;8.990;2023-08-20T05:45:51;10.23;;;6.37;;
6973;SDS011;3527;52.376;8.990;2023-08-20T05:48:17;11.67;;;6.07;;
6973;SDS011;3527;52.376;8.990;2023-08-20T05:50:44;7.80;;;5.37;;
6973;SDS011;3527;52.376;8.990;2023-08-20T05:53:10;13.53;;;5.93;;
6973;SDS011;3527;52.376;8.990;2023-08-20T05:55:37;6.50;;;5.03;;
6973;SDS011;3527;52.376;8.990;2023-08-20T05:58:04;10.77;;;5.93;;
6973;SDS011;3527;52.376;8.990;2023-08-20T06:00:30;6.43;;;4.77;;
6973;SDS011;3527;52.376;8.990;2023-08-20T06:02:57;8.93;;;5.53;;
6973;SDS011;3527;52.376;8.990;2023-08-20T06:05:24;9.13;;;5.70;;
6973;SDS011;3527;52.376;8.990;2023-08-20T06:07:51;9.27;;;5.53;;
6973;SDS011;3527;52.376;8.990;2023-08-20T06:10:17;9.07;;;5.77;;
6973;SDS011;3527;52.376;8.990;2023-08-20T06:12:44;7.57;;;5.30;;
6973;SDS011;3527;52.376;8.990;2023-08-20T06:15:10;7.57;;;5.10;;
6973;SDS011;3527;52.376;8.990;2023-08-20T06:17:38;10.23;;;5.17;;
6973;SDS011;3527;52.376;8.990;2023-08-20T06:20:06;7.73;;;5.23;;
6973;SDS011;3527;52.376;8.990;2023-08-20T06:22:34;7.50;;;4.93;;
6973;SDS011;3527;52.376;8.990;2023-08-20T06:25:01;8.23;;;5.10;;
6973;SDS011;3527;52.376;8.990;2023-08-20T06:27:28;8.77;;;5.00;;
6973;SDS011;3527;52.376;8.990;2023-08-20T06:29:55;9.27;;;4.40;;
6973;SDS011;3527;52.376;8.990;2023-08-20T06:32:23;8.17;;;4.83;;
6973;SDS011;3527;52.376;8.990;2023-08-20T06:34:49;7.07;;;4.03;;
6973;SDS011;3527;52.376;8.990;2023-08-20T06:37:17;7.73;;;4.47;;
6973;SDS011;3527;52.376;8.990;2023-08-20T06:39:44;7.20;;;3.90;;
6973;SDS011;3527;52.376;8.990;2023-08-20T06:42:14;5.83;;;4.00;;
6973;SDS011;3527;52.376;8.990;2023-08-20T06:44:41;7.97;;;3.93;;
6973;SDS011;3527;52.376;8.990;2023-08-20T06:47:08;4.80;;;3.00;;
6973;SDS011;3527;52.376;8.990;2023-08-20T06:49:39;7.73;;;3.57;;
6973;SDS011;3527;52.376;8.990;2023-08-20T06:52:07;8.80;;;3.80;;
6973;SDS011;3527;52.376;8.990;2023-08-20T06:54:33;7.17;;;3.50;;
6973;SDS011;3527;52.376;8.990;2023-08-20T06:57:01;6.47;;;3.47;;
6973;SDS011;3527;52.376;8.990;2023-08-20T07:03:01;7.80;;;3.30;;
6973;SDS011;3527;52.376;8.990;2023-08-20T07:05:30;7.60;;;3.13;;
6973;SDS011;3527;52.376;8.990;2023-08-20T07:10:49;6.40;;;3.03;;
6973;SDS011;3527;52.376;8.990;2023-08-20T07:13:15;5.70;;;3.00;;
6973;SDS011;3527;52.376;8.990;2023-08-20T07:15:42;7.17;;;3.10;;
6973;SDS011;3527;52.376;8.990;2023-08-20T07:18:09;5.80;;;3.30;;
6973;SDS011;3527;52.376;8.990;2023-08-20T07:20:40;4.77;;;2.70;;
6973;SDS011;3527;52.376;8.990;2023-08-20T07:23:08;6.23;;;3.10;;
6973;SDS011;3527;52.376;8.990;2023-08-20T07:25:49;5.43;;;2.72;;
6973;SDS011;3527;52.376;8.990;2023-08-20T07:28:31;5.68;;;3.33;;
6973;SDS011;3527;52.376;8.990;2023-08-20T07:34:20;9.23;;;3.57;;
6973;SDS011;3527;52.376;8.990;2023-08-20T07:36:48;5.68;;;3.10;;
6973;SDS011;3527;52.376;8.990;2023-08-20T07:39:28;5.57;;;3.22;;
6973;SDS011;3527;52.376;8.990;2023-08-20T07:41:56;5.60;;;3.60;;
6973;SDS011;3527;52.376;8.990;2023-08-20T07:44:35;6.32;;;3.28;;
6973;SDS011;3527;52.376;8.990;2023-08-20T07:47:04;5.53;;;3.47;;
6973;SDS011;3527;52.376;8.990;2023-08-20T07:49:45;6.45;;;3.40;;
6973;SDS011;3527;52.376;8.990;2023-08-20T07:52:12;6.80;;;3.72;;
6973;SDS011;3527;52.376;8.990;2023-08-20T07:54:40;4.93;;;3.38;;
6973;SDS011;3527;52.376;8.990;2023-08-20T07:57:08;4.72;;;3.05;;
6973;SDS011;3527;52.376;8.990;2023-08-20T07:59:35;5.63;;;3.92;;
6973;SDS011;3527;52.376;8.990;2023-08-20T08:02:02;4.18;;;3.25;;
6973;SDS011;3527;52.376;8.990;2023-08-20T08:04:29;7.40;;;4.18;;
6973;SDS011;3527;52.376;8.990;2023-08-20T08:07:10;5.32;;;3.75;;
6973;SDS011;3527;52.376;8.990;2023-08-20T08:09:37;7.70;;;3.80;;
6973;SDS011;3527;52.376;8.990;2023-08-20T08:12:18;5.18;;;3.72;;
6973;SDS011;3527;52.376;8.990;2023-08-20T08:14:44;5.68;;;3.55;;
6973;SDS011;3527;52.376;8.990;2023-08-20T08:17:12;5.93;;;4.13;;
6973;SDS011;3527;52.376;8.990;2023-08-20T08:19:39;7.53;;;4.40;;
6973;SDS011;3527;52.376;8.990;2023-08-20T08:22:06;6.57;;;4.20;;
6973;SDS011;3527;52.376;8.990;2023-08-20T08:24:33;7.00;;;4.50;;
6973;SDS011;3527;52.376;8.990;2023-08-20T08:26:59;7.28;;;4.13;;
6973;SDS011;3527;52.376;8.990;2023-08-20T08:29:29;6.88;;;4.65;;
6973;SDS011;3527;52.376;8.990;2023-08-20T08:32:10;5.57;;;4.20;;
6973;SDS011;3527;52.376;8.990;2023-08-20T08:34:37;6.38;;;4.22;;
6973;SDS011;3527;52.376;8.990;2023-08-20T08:37:04;5.82;;;4.60;;
6973;SDS011;3527;52.376;8.990;2023-08-20T08:39:31;7.93;;;5.05;;
6973;SDS011;3527;52.376;8.990;2023-08-20T08:42:02;14.00;;;6.03;;
6973;SDS011;3527;52.376;8.990;2023-08-20T08:44:31;7.10;;;4.60;;
6973;SDS011;3527;52.376;8.990;2023-08-20T08:46:59;5.20;;;4.38;;
6973;SDS011;3527;52.376;8.990;2023-08-20T08:49:26;6.18;;;5.00;;
6973;SDS011;3527;52.376;8.990;2023-08-20T08:51:53;7.18;;;4.28;;
6973;SDS011;3527;52.376;8.990;2023-08-20T08:54:23;7.10;;;4.75;;
6973;SDS011;3527;52.376;8.990;2023-08-20T08:56:50;9.23;;;5.22;;
6973;SDS011;3527;52.376;8.990;2023-08-20T08:59:18;7.72;;;4.32;;
6973;SDS011;3527;52.376;8.990;2023-08-20T09:01:45;5.50;;;4.65;;
6973;SDS011;3527;52.376;8.990;2023-08-20T09:04:12;6.47;;;4.90;;
6973;SDS011;3527;52.376;8.990;2023-08-20T09:06:46;8.27;;;4.78;;
6973;SDS011;3527;52.376;8.990;2023-08-20T09:09:14;7.28;;;4.10;;
6973;SDS011;3527;52.376;8.990;2023-08-20T09:11:41;6.20;;;4.03;;
6973;SDS011;3527;52.376;8.990;2023-08-20T09:14:09;8.52;;;4.55;;
6973;SDS011;3527;52.376;8.990;2023-08-20T09:16:47;7.85;;;4.57;;
6973;SDS011;3527;52.376;8.990;2023-08-20T09:19:20;5.95;;;4.50;;
6973;SDS011;3527;52.376;8.990;2023-08-20T09:21:47;5.82;;;4.47;;
6973;SDS011;3527;52.376;8.990;2023-08-20T09:24:16;5.65;;;4.30;;
6973;SDS011;3527;52.376;8.990;2023-08-20T09:26:46;5.65;;;4.47;;
6973;SDS011;3527;52.376;8.990;2023-08-20T09:29:13;7.60;;;4.75;;
6973;SDS011;3527;52.376;8.990;2023-08-20T09:31:43;6.60;;;4.50;;
6973;SDS011;3527;52.376;8.990;2023-08-20T09:34:13;5.55;;;4.28;;
6973;SDS011;3527;52.376;8.990;2023-08-20T09:36:41;5.55;;;4.10;;
6973;SDS011;3527;52.376;8.990;2023-08-20T09:39:09;7.43;;;4.20;;
6973;SDS011;3527;52.376;8.990;2023-08-20T09:41:36;5.03;;;4.45;;
6973;SDS011;3527;52.376;8.990;2023-08-20T09:44:05;6.07;;;4.13;;
6973;SDS011;3527;52.376;8.990;2023-08-20T09:46:32;5.75;;;3.95;;
6973;SDS011;3527;52.376;8.990;2023-08-20T09:49:00;4.88;;;4.38;;
6973;SDS011;3527;52.376;8.990;2023-08-20T09:51:28;5.15;;;4.20;;
6973;SDS011;3527;52.376;8.990;2023-08-20T09:54:13;5.38;;;4.15;;
6973;SDS011;3527;52.376;8.990;2023-08-20T09:56:42;6.57;;;4.32;;
6973;SDS011;3527;52.376;8.990;2023-08-20T09:59:10;6.78;;;4.57;;
6973;SDS011;3527;52.376;8.990;2023-08-20T10:01:37;5.63;;;4.55;;
6973;SDS011;3527;52.376;8.990;2023-08-20T10:04:04;8.55;;;4.10;;
6973;SDS011;3527;52.376;8.990;2023-08-20T10:06:31;6.57;;;4.00;;
6973;SDS011;3527;52.376;8.990;2023-08-20T10:09:01;5.65;;;4.03;;
6973;SDS011;3527;52.376;8.990;2023-08-20T10:11:29;5.75;;;4.18;;
6973;SDS011;3527;52.376;8.990;2023-08-20T10:14:09;5.38;;;3.92;;
6973;SDS011;3527;52.376;8.990;2023-08-20T10:16:35;6.70;;;4.25;;
6973;SDS011;3527;52.376;8.990;2023-08-20T10:19:03;5.43;;;4.53;;
6973;SDS011;3527;52.376;8.990;2023-08-20T10:21:46;4.70;;;3.92;;
6973;SDS011;3527;52.376;8.990;2023-08-20T10:24:16;5.18;;;3.85;;
6973;SDS011;3527;52.376;8.990;2023-08-20T10:26:47;5.55;;;3.97;;
6973;SDS011;3527;52.376;8.990;2023-08-20T10:29:52;5.97;;;3.75;;
6973;SDS011;3527;52.376;8.990;2023-08-20T10:32:20;3.85;;;3.22;;
6973;SDS011;3527;52.376;8.990;2023-08-20T10:34:51;4.35;;;3.17;;
6973;SDS011;3527;52.376;8.990;2023-08-20T10:37:28;4.45;;;3.35;;
6973;SDS011;3527;52.376;8.990;2023-08-20T10:39:56;5.65;;;3.75;;
6973;SDS011;3527;52.376;8.990;2023-08-20T10:42:25;5.25;;;3.47;;
6973;SDS011;3527;52.376;8.990;2023-08-20T10:47:23;4.13;;;3.50;;
6973;SDS011;3527;52.376;8.990;2023-08-20T10:49:55;5.00;;;3.47;;
6973;SDS011;3527;52.376;8.990;2023-08-20T10:52:24;4.38;;;3.30;;
6973;SDS011;3527;52.376;8.990;2023-08-20T10:54:52;5.35;;;3.50;;
6973;SDS011;3527;52.376;8.990;2023-08-20T10:57:21;4.88;;;3.38;;
6973;SDS011;3527;52.376;8.990;2023-08-20T10:59:57;4.40;;;3.72;;
6973;SDS011;3527;52.376;8.990;2023-08-20T11:02:27;4.90;;;3.60;;
6973;SDS011;3527;52.376;8.990;2023-08-20T11:04:54;4.13;;;3.20;;
6973;SDS011;3527;52.376;8.990;2023-08-20T11:07:35;4.75;;;3.33;;
6973;SDS011;3527;52.376;8.990;2023-08-20T11:10:03;4.07;;;3.42;;
6973;SDS011;3527;52.376;8.990;2023-08-20T11:12:32;5.15;;;3.80;;
6973;SDS011;3527;52.376;8.990;2023-08-20T11:15:12;4.55;;;3.20;;
6973;SDS011;3527;52.376;8.990;2023-08-20T11:17:40;7.18;;;3.38;;
6973;SDS011;3527;52.376;8.990;2023-08-20T11:20:09;4.25;;;3.50;;
6973;SDS011;3527;52.376;8.990;2023-08-20T11:22:38;5.82;;;3.63;;
6973;SDS011;3527;52.376;8.990;2023-08-20T11:25:05;6.05;;;3.75;;
6973;SDS011;3527;52.376;8.990;2023-08-20T11:27:32;4.03;;;3.08;;
6973;SDS011;3527;52.376;8.990;2023-08-20T11:29:59;5.18;;;3.30;;
6973;SDS011;3527;52.376;8.990;2023-08-20T11:32:26;4.03;;;3.22;;
6973;SDS011;3527;52.376;8.990;2023-08-20T11:34:52;3.80;;;3.38;;
6973;SDS011;3527;52.376;8.990;2023-08-20T11:37:22;4.97;;;3.35;;
6973;SDS011;3527;52.376;8.990;2023-08-20T11:39:49;4.75;;;3.47;;
6973;SDS011;3527;52.376;8.990;2023-08-20T11:42:16;4.45;;;3.35;;
6973;SDS011;3527;52.376;8.990;2023-08-20T11:44:44;4.10;;;3.30;;
6973;SDS011;3527;52.376;8.990;2023-08-20T11:47:17;4.13;;;2.80;;
6973;SDS011;3527;52.376;8.990;2023-08-20T11:49:45;4.18;;;3.17;;
6973;SDS011;3527;52.376;8.990;2023-08-20T11:52:12;3.90;;;3.00;;
6973;SDS011;3527;52.376;8.990;2023-08-20T11:54:43;4.35;;;3.17;;
6973;SDS011;3527;52.376;8.990;2023-08-20T11:57:10;4.00;;;3.10;;
6973;SDS011;3527;52.376;8.990;2023-08-20T11:59:37;3.72;;;2.85;;
6973;SDS011;3527;52.376;8.990;2023-08-20T12:02:05;5.20;;;3.10;;
6973;SDS011;3527;52.376;8.990;2023-08-20T12:04:32;5.43;;;3.47;;
6973;SDS011;3527;52.376;8.990;2023-08-20T12:09:30;5.15;;;3.22;;
6973;SDS011;3527;52.376;8.990;2023-08-20T12:11:57;3.65;;;2.90;;
6973;SDS011;3527;52.376;8.990;2023-08-20T12:14:25;3.88;;;3.20;;
6973;SDS011;3527;52.376;8.990;2023-08-20T12:16:55;4.43;;;3.20;;
6973;SDS011;3527;52.376;8.990;2023-08-20T12:19:23;3.17;;;2.88;;
6973;SDS011;3527;52.376;8.990;2023-08-20T12:21:51;4.68;;;3.40;;
6973;SDS011;3527;52.376;8.990;2023-08-20T12:24:18;4.53;;;3.35;;
6973;SDS011;3527;52.376;8.990;2023-08-20T12:26:49;3.78;;;3.30;;
6973;SDS011;3527;52.376;8.990;2023-08-20T12:29:16;6.55;;;3.75;;
6973;SDS011;3527;52.376;8.990;2023-08-20T12:31:43;4.60;;;3.40;;
6973;SDS011;3527;52.376;8.990;2023-08-20T12:34:10;4.22;;;3.00;;
6973;SDS011;3527;52.376;8.990;2023-08-20T12:36:37;4.80;;;3.33;;
6973;SDS011;3527;52.376;8.990;2023-08-20T12:39:04;4.93;;;3.55;;
6973;SDS011;3527;52.376;8.990;2023-08-20T12:41:31;4.30;;;3.45;;
6973;SDS011;3527;52.376;8.990;2023-08-20T12:43:58;4.00;;;3.20;;
6973;SDS011;3527;52.376;8.990;2023-08-20T12:46:25;3.38;;;3.08;;
6973;SDS011;3527;52.376;8.990;2023-08-20T12:48:52;3.95;;;3.20;;
6973;SDS011;3527;52.376;8.990;2023-08-20T12:51:19;3.85;;;3.03;;
6973;SDS011;3527;52.376;8.990;2023-08-20T12:53:47;4.50;;;3.55;;
6973;SDS011;3527;52.376;8.990;2023-08-20T12:56:14;3.90;;;3.50;;
6973;SDS011;3527;52.376;8.990;2023-08-20T12:58:42;4.57;;;3.30;;
6973;SDS011;3527;52.376;8.990;2023-08-20T13:01:18;6.63;;;3.58;;
6973;SDS011;3527;52.376;8.990;2023-08-20T13:03:48;4.93;;;3.20;;
6973;SDS011;3527;52.376;8.990;2023-08-20T13:06:20;5.43;;;3.40;;
6973;SDS011;3527;52.376;8.990;2023-08-20T13:08:46;4.00;;;3.40;;
6973;SDS011;3527;52.376;8.990;2023-08-20T13:11:14;4.93;;;3.28;;
6973;SDS011;3527;52.376;8.990;2023-08-20T13:13:43;4.03;;;3.22;;
6973;SDS011;3527;52.376;8.990;2023-08-20T13:16:10;3.65;;;3.28;;
6973;SDS011;3527;52.376;8.990;2023-08-20T13:18:37;5.38;;;3.33;;
6973;SDS011;3527;52.376;8.990;2023-08-20T13:21:04;4.00;;;3.60;;
6973;SDS011;3527;52.376;8.990;2023-08-20T13:23:31;5.07;;;3.47;;
6973;SDS011;3527;52.376;8.990;2023-08-20T13:25:58;3.97;;;3.20;;
6973;SDS011;3527;52.376;8.990;2023-08-20T13:28:25;3.78;;;3.40;;
6973;SDS011;3527;52.376;8.990;2023-08-20T13:30:52;3.78;;;3.03;;
6973;SDS011;3527;52.376;8.990;2023-08-20T13:33:19;3.13;;;2.83;;
6973;SDS011;3527;52.376;8.990;2023-08-20T13:35:46;5.00;;;3.15;;
6973;SDS011;3527;52.376;8.990;2023-08-20T13:38:13;3.97;;;3.10;;
6973;SDS011;3527;52.376;8.990;2023-08-20T13:40:40;4.95;;;3.28;;
6973;SDS011;3527;52.376;8.990;2023-08-20T13:43:10;5.78;;;3.20;;
6973;SDS011;3527;52.376;8.990;2023-08-20T13:45:36;5.47;;;3.25;;
6973;SDS011;3527;52.376;8.990;2023-08-20T13:48:03;5.25;;;3.13;;
6973;SDS011;3527;52.376;8.990;2023-08-20T13:50:31;4.30;;;3.13;;
6973;SDS011;3527;52.376;8.990;2023-08-20T13:52:58;3.60;;;2.78;;
6973;SDS011;3527;52.376;8.990;2023-08-20T13:55:27;5.80;;;3.22;;
6973;SDS011;3527;52.376;8.990;2023-08-20T13:57:58;5.53;;;3.40;;
6973;SDS011;3527;52.376;8.990;2023-08-20T14:00:24;3.88;;;3.00;;
6973;SDS011;3527;52.376;8.990;2023-08-20T14:02:52;5.72;;;3.63;;
6973;SDS011;3527;52.376;8.990;2023-08-20T14:05:19;4.22;;;3.10;;
6973;SDS011;3527;52.376;8.990;2023-08-20T14:07:46;3.90;;;3.05;;
6973;SDS011;3527;52.376;8.990;2023-08-20T14:10:13;4.85;;;3.17;;
6973;SDS011;3527;52.376;8.990;2023-08-20T14:12:40;4.25;;;3.20;;
6973;SDS011;3527;52.376;8.990;2023-08-20T14:15:08;3.25;;;2.65;;
6973;SDS011;3527;52.376;8.990;2023-08-20T14:17:35;5.53;;;3.28;;
6973;SDS011;3527;52.376;8.990;2023-08-20T14:20:02;5.20;;;3.08;;
6973;SDS011;3527;52.376;8.990;2023-08-20T14:22:30;4.07;;;3.10;;
6973;SDS011;3527;52.376;8.990;2023-08-20T14:24:57;3.90;;;3.17;;
6973;SDS011;3527;52.376;8.990;2023-08-20T14:27:24;7.10;;;3.30;;
6973;SDS011;3527;52.376;8.990;2023-08-20T14:29:51;4.13;;;3.40;;
6973;SDS011;3527;52.376;8.990;2023-08-20T14:32:17;4.35;;;3.05;;
6973;SDS011;3527;52.376;8.990;2023-08-20T14:34:49;3.90;;;3.15;;
6973;SDS011;3527;52.376;8.990;2023-08-20T14:37:16;4.45;;;3.08;;
6973;SDS011;3527;52.376;8.990;2023-08-20T14:39:42;4.28;;;3.13;;
6973;SDS011;3527;52.376;8.990;2023-08-20T14:42:09;4.50;;;2.97;;
6973;SDS011;3527;52.376;8.990;2023-08-20T14:44:36;5.03;;;3.35;;
6973;SDS011;3527;52.376;8.990;2023-08-20T14:47:03;3.97;;;3.08;;
6973;SDS011;3527;52.376;8.990;2023-08-20T14:49:31;4.43;;;3.35;;
6973;SDS011;3527;52.376;8.990;2023-08-20T14:51:58;3.70;;;3.28;;
6973;SDS011;3527;52.376;8.990;2023-08-20T14:54:44;4.65;;;3.50;;
6973;SDS011;3527;52.376;8.990;2023-08-20T14:57:10;3.78;;;3.30;;
6973;SDS011;3527;52.376;8.990;2023-08-20T14:59:37;3.45;;;3.15;;
6973;SDS011;3527;52.376;8.990;2023-08-20T15:02:04;4.05;;;3.10;;
6973;SDS011;3527;52.376;8.990;2023-08-20T15:04:31;4.05;;;3.50;;
6973;SDS011;3527;52.376;8.990;2023-08-20T15:06:58;3.80;;;3.40;;
6973;SDS011;3527;52.376;8.990;2023-08-20T15:09:25;3.42;;;3.13;;
6973;SDS011;3527;52.376;8.990;2023-08-20T15:11:52;5.72;;;3.50;;
6973;SDS011;3527;52.376;8.990;2023-08-20T15:14:19;4.70;;;3.35;;
6973;SDS011;3527;52.376;8.990;2023-08-20T15:16:46;3.42;;;3.13;;
6973;SDS011;3527;52.376;8.990;2023-08-20T15:19:12;4.75;;;3.90;;
6973;SDS011;3527;52.376;8.990;2023-08-20T15:21:39;4.72;;;3.20;;
6973;SDS011;3527;52.376;8.990;2023-08-20T15:24:06;4.95;;;3.63;;
6973;SDS011;3527;52.376;8.990;2023-08-20T15:26:33;4.30;;;3.58;;
6973;SDS011;3527;52.376;8.990;2023-08-20T15:29:00;4.68;;;3.40;;
6973;SDS011;3527;52.376;8.990;2023-08-20T15:31:27;7.32;;;4.07;;
6973;SDS011;3527;52.376;8.990;2023-08-20T15:33:55;11.38;;;4.63;;
6973;SDS011;3527;52.376;8.990;2023-08-20T15:36:21;4.18;;;3.40;;
6973;SDS011;3527;52.376;8.990;2023-08-20T15:38:48;5.07;;;3.65;;
6973;SDS011;3527;52.376;8.990;2023-08-20T15:41:15;3.83;;;3.42;;
6973;SDS011;3527;52.376;8.990;2023-08-20T15:43:41;4.78;;;3.47;;